sensor_id;sensor_type;location;lat;lon;timestamp;pressure;altitude;pressure_sealevel;temperature;humidity
61035;BME280;46916;40.564;-7.958;2023-04-10T00:01:22;97989.31;;;15.68;64.33
61035;BME280;46916;40.564;-7.958;2023-04-10T00:03:23;97991.09;;;15.67;64.17
61035;BME280;46916;40.564;-7.958;2023-04-10T00:05:24;97981.31;;;15.50;64.84
61035;BME280;46916;40.564;-7.958;2023-04-10T00:07:25;97984.69;;;15.42;65.49
61035;BME280;46916;40.564;-7.958;2023-04-10T00:09:26;97977.75;;;15.41;65.95
61035;BME280;46916;40.564;-7.958;2023-04-10T00:11:28;97989.28;;;15.40;66.08
61035;BME280;46916;40.564;-7.958;2023-04-10T00:13:29;98001.50;;;15.41;66.44
61035;BME280;46916;40.564;-7.958;2023-04-10T00:15:30;98016.91;;;15.46;66.81
61035;BME280;46916;40.564;-7.958;2023-04-10T00:17:31;98008.84;;;15.47;66.94
61035;BME280;46916;40.564;-7.958;2023-04-10T00:19:31;98010.63;;;15.47;67.34
61035;BME280;46916;40.564;-7.958;2023-04-10T00:21:32;98013.00;;;15.50;68.03
61035;BME280;46916;40.564;-7.958;2023-04-10T00:23:33;98026.75;;;15.53;67.68
61035;BME280;46916;40.564;-7.958;2023-04-10T00:25:34;98018.88;;;15.44;68.10
61035;BME280;46916;40.564;-7.958;2023-04-10T00:27:34;98025.09;;;15.43;68.73
61035;BME280;46916;40.564;-7.958;2023-04-10T00:29:35;98028.28;;;15.46;68.04
61035;BME280;46916;40.564;-7.958;2023-04-10T00:31:36;98028.88;;;15.40;69.35
61035;BME280;46916;40.564;-7.958;2023-04-10T00:33:37;98027.91;;;15.41;68.85
61035;BME280;46916;40.564;-7.958;2023-04-10T00:35:37;98026.91;;;15.42;68.81
61035;BME280;46916;40.564;-7.958;2023-04-10T00:37:38;98027.47;;;15.46;69.00
61035;BME280;46916;40.564;-7.958;2023-04-10T00:39:39;98011.53;;;15.38;69.37
61035;BME280;46916;40.564;-7.958;2023-04-10T00:41:40;98027.22;;;15.39;69.88
61035;BME280;46916;40.564;-7.958;2023-04-10T00:43:41;98021.41;;;15.35;69.21
61035;BME280;46916;40.564;-7.958;2023-04-10T00:45:41;98012.56;;;15.27;69.58
61035;BME280;46916;40.564;-7.958;2023-04-10T00:47:42;98022.13;;;15.28;70.81
61035;BME280;46916;40.564;-7.958;2023-04-10T00:49:43;98018.34;;;15.30;70.29
61035;BME280;46916;40.564;-7.958;2023-04-10T00:51:45;98007.13;;;15.28;70.14
61035;BME280;46916;40.564;-7.958;2023-04-10T00:53:47;98017.84;;;15.27;69.81
61035;BME280;46916;40.564;-7.958;2023-04-10T00:55:50;98012.56;;;15.17;70.25
61035;BME280;46916;40.564;-7.958;2023-04-10T00:57:54;98007.19;;;15.09;70.40
61035;BME280;46916;40.564;-7.958;2023-04-10T00:59:55;98006.53;;;15.07;70.27
61035;BME280;46916;40.564;-7.958;2023-04-10T01:01:56;98014.66;;;15.14;70.04
61035;BME280;46916;40.564;-7.958;2023-04-10T01:03:58;98008.72;;;15.11;69.56
61035;BME280;46916;40.564;-7.958;2023-04-10T01:06:21;98010.63;;;15.19;69.70
61035;BME280;46916;40.564;-7.958;2023-04-10T01:08:30;98017.28;;;15.23;69.29
61035;BME280;46916;40.564;-7.958;2023-04-10T01:11:28;98012.69;;;15.25;69.34
61035;BME280;46916;40.564;-7.958;2023-04-10T01:13:27;98004.09;;;15.23;69.66
61035;BME280;46916;40.564;-7.958;2023-04-10T01:15:46;98006.00;;;15.31;69.23
61035;BME280;46916;40.564;-7.958;2023-04-10T01:18:40;98012.78;;;15.33;69.37
61035;BME280;46916;40.564;-7.958;2023-04-10T01:20:37;98010.97;;;15.34;69.56
61035;BME280;46916;40.564;-7.958;2023-04-10T01:25:00;98013.78;;;15.32;69.20
61035;BME280;46916;40.564;-7.958;2023-04-10T01:27:28;98011.41;;;15.29;69.54
61035;BME280;46916;40.564;-7.958;2023-04-10T01:29:38;97994.75;;;15.29;69.53
61035;BME280;46916;40.564;-7.958;2023-04-10T01:31:49;97993.78;;;15.30;69.48
61035;BME280;46916;40.564;-7.958;2023-04-10T01:33:57;97985.56;;;15.33;69.65
61035;BME280;46916;40.564;-7.958;2023-04-10T01:36:02;97978.09;;;15.28;69.99
61035;BME280;46916;40.564;-7.958;2023-04-10T01:38:05;97991.97;;;15.30;70.04
61035;BME280;46916;40.564;-7.958;2023-04-10T01:40:09;97999.97;;;15.39;70.16
61035;BME280;46916;40.564;-7.958;2023-04-10T01:42:10;98004.97;;;15.42;69.98
61035;BME280;46916;40.564;-7.958;2023-04-10T01:44:17;97984.84;;;15.41;69.50
61035;BME280;46916;40.564;-7.958;2023-04-10T01:46:21;97987.22;;;15.34;70.27
61035;BME280;46916;40.564;-7.958;2023-04-10T01:48:23;97989.03;;;15.33;69.92
61035;BME280;46916;40.564;-7.958;2023-04-10T01:50:25;97994.88;;;15.37;69.43
61035;BME280;46916;40.564;-7.958;2023-04-10T01:52:29;97981.13;;;15.33;69.71
61035;BME280;46916;40.564;-7.958;2023-04-10T01:54:39;97977.13;;;15.29;69.48
61035;BME280;46916;40.564;-7.958;2023-04-10T01:56:44;97971.16;;;15.27;69.57
61035;BME280;46916;40.564;-7.958;2023-04-10T01:58:49;97963.38;;;15.26;69.35
61035;BME280;46916;40.564;-7.958;2023-04-10T02:00:51;97967.81;;;15.25;69.42
61035;BME280;46916;40.564;-7.958;2023-04-10T02:02:51;97970.03;;;15.30;69.75
61035;BME280;46916;40.564;-7.958;2023-04-10T02:04:52;97962.09;;;15.30;69.45
61035;BME280;46916;40.564;-7.958;2023-04-10T02:11:27;97961.13;;;15.03;70.18
61035;BME280;46916;40.564;-7.958;2023-04-10T02:13:33;97959.88;;;15.07;70.36
61035;BME280;46916;40.564;-7.958;2023-04-10T02:15:35;97963.88;;;15.11;70.38
61035;BME280;46916;40.564;-7.958;2023-04-10T02:17:37;97956.63;;;15.14;70.19
61035;BME280;46916;40.564;-7.958;2023-04-10T02:19:40;97966.06;;;15.16;70.61
61035;BME280;46916;40.564;-7.958;2023-04-10T02:21:42;97958.31;;;15.15;70.29
61035;BME280;46916;40.564;-7.958;2023-04-10T02:23:43;97959.69;;;15.19;70.28
61035;BME280;46916;40.564;-7.958;2023-04-10T02:25:44;97961.47;;;15.18;69.94
61035;BME280;46916;40.564;-7.958;2023-04-10T02:27:45;97953.41;;;15.20;69.88
61035;BME280;46916;40.564;-7.958;2023-04-10T02:29:45;97961.47;;;15.18;69.82
61035;BME280;46916;40.564;-7.958;2023-04-10T02:31:46;97958.81;;;15.18;69.38
61035;BME280;46916;40.564;-7.958;2023-04-10T02:33:48;97950.25;;;15.16;70.04
61035;BME280;46916;40.564;-7.958;2023-04-10T02:35:49;97943.59;;;15.12;69.43
61035;BME280;46916;40.564;-7.958;2023-04-10T02:37:49;97955.53;;;15.16;69.39
61035;BME280;46916;40.564;-7.958;2023-04-10T02:39:51;97965.25;;;15.16;69.54
61035;BME280;46916;40.564;-7.958;2023-04-10T02:41:54;97961.22;;;15.11;69.70
61035;BME280;46916;40.564;-7.958;2023-04-10T02:43:56;97962.88;;;15.13;69.83
61035;BME280;46916;40.564;-7.958;2023-04-10T02:46:00;97966.34;;;15.13;69.84
61035;BME280;46916;40.564;-7.958;2023-04-10T02:48:06;97960.41;;;15.11;69.89
61035;BME280;46916;40.564;-7.958;2023-04-10T02:50:06;97952.63;;;15.09;70.23
61035;BME280;46916;40.564;-7.958;2023-04-10T02:52:10;97963.44;;;15.16;69.89
61035;BME280;46916;40.564;-7.958;2023-04-10T02:54:11;97956.09;;;15.10;69.64
61035;BME280;46916;40.564;-7.958;2023-04-10T02:56:14;97968.88;;;15.15;69.56
61035;BME280;46916;40.564;-7.958;2023-04-10T02:58:15;97964.84;;;15.10;69.54
61035;BME280;46916;40.564;-7.958;2023-04-10T03:00:16;97958.88;;;15.08;69.65
61035;BME280;46916;40.564;-7.958;2023-04-10T03:02:37;97953.22;;;15.03;69.60
61035;BME280;46916;40.564;-7.958;2023-04-10T03:04:47;97959.47;;;15.02;69.71
61035;BME280;46916;40.564;-7.958;2023-04-10T03:06:47;97952.22;;;15.04;69.27
61035;BME280;46916;40.564;-7.958;2023-04-10T03:08:48;97954.38;;;14.91;69.63
61035;BME280;46916;40.564;-7.958;2023-04-10T03:10:49;97955.59;;;14.97;69.63
61035;BME280;46916;40.564;-7.958;2023-04-10T03:12:49;97952.72;;;14.90;70.05
61035;BME280;46916;40.564;-7.958;2023-04-10T03:14:50;97962.81;;;14.95;69.60
61035;BME280;46916;40.564;-7.958;2023-04-10T03:16:51;97954.38;;;14.91;69.63
61035;BME280;46916;40.564;-7.958;2023-04-10T03:18:52;97955.88;;;14.94;69.69
61035;BME280;46916;40.564;-7.958;2023-04-10T03:20:53;97958.00;;;14.90;69.75
61035;BME280;46916;40.564;-7.958;2023-04-10T03:22:54;97963.78;;;14.94;69.63
61035;BME280;46916;40.564;-7.958;2023-04-10T03:24:55;97969.75;;;14.96;69.43
61035;BME280;46916;40.564;-7.958;2023-04-10T03:26:56;97965.31;;;14.96;68.79
61035;BME280;46916;40.564;-7.958;2023-04-10T03:28:57;97980.69;;;15.01;69.39
61035;BME280;46916;40.564;-7.958;2023-04-10T03:30:58;97976.25;;;15.01;69.37
61035;BME280;46916;40.564;-7.958;2023-04-10T03:32:59;97967.66;;;14.99;69.49
61035;BME280;46916;40.564;-7.958;2023-04-10T03:35:00;97971.53;;;15.05;69.05
61035;BME280;46916;40.564;-7.958;2023-04-10T03:37:00;97973.50;;;15.03;69.02
61035;BME280;46916;40.564;-7.958;2023-04-10T03:39:03;97965.59;;;14.93;69.14
61035;BME280;46916;40.564;-7.958;2023-04-10T03:41:05;97980.47;;;14.94;68.85
61035;BME280;46916;40.564;-7.958;2023-04-10T03:43:07;97976.13;;;14.93;69.28
61035;BME280;46916;40.564;-7.958;2023-04-10T03:45:09;97973.38;;;14.95;69.30
61035;BME280;46916;40.564;-7.958;2023-04-10T03:47:10;97974.63;;;14.91;69.41
61035;BME280;46916;40.564;-7.958;2023-04-10T03:49:11;97969.25;;;14.82;69.68
61035;BME280;46916;40.564;-7.958;2023-04-10T03:51:12;97973.38;;;14.85;69.63
61035;BME280;46916;40.564;-7.958;2023-04-10T03:53:13;97972.31;;;14.78;69.91
61035;BME280;46916;40.564;-7.958;2023-04-10T03:55:14;97975.63;;;14.80;69.87
61035;BME280;46916;40.564;-7.958;2023-04-10T03:57:19;97986.44;;;14.86;69.91
61035;BME280;46916;40.564;-7.958;2023-04-10T03:59:21;97978.81;;;14.83;69.78
61035;BME280;46916;40.564;-7.958;2023-04-10T04:01:22;97989.09;;;14.86;69.81
61035;BME280;46916;40.564;-7.958;2023-04-10T04:03:32;97988.09;;;14.88;69.72
61035;BME280;46916;40.564;-7.958;2023-04-10T04:05:51;97988.41;;;14.75;69.76
61035;BME280;46916;40.564;-7.958;2023-04-10T04:08:00;97985.66;;;14.67;70.19
61035;BME280;46916;40.564;-7.958;2023-04-10T04:10:11;97990.66;;;14.70;70.01
61035;BME280;46916;40.564;-7.958;2023-04-10T04:12:32;98012.28;;;14.73;70.16
61035;BME280;46916;40.564;-7.958;2023-04-10T04:14:40;98000.22;;;14.71;70.43
61035;BME280;46916;40.564;-7.958;2023-04-10T04:17:02;98007.56;;;14.77;70.07
61035;BME280;46916;40.564;-7.958;2023-04-10T04:19:26;98012.56;;;14.80;69.83
61035;BME280;46916;40.564;-7.958;2023-04-10T04:21:45;98008.38;;;14.77;69.69
61035;BME280;46916;40.564;-7.958;2023-04-10T04:24:01;98003.09;;;14.77;69.70
61035;BME280;46916;40.564;-7.958;2023-04-10T04:26:20;98003.66;;;14.81;69.58
61035;BME280;46916;40.564;-7.958;2023-04-10T04:28:36;97990.34;;;14.73;69.52
61035;BME280;46916;40.564;-7.958;2023-04-10T04:30:55;98016.16;;;14.79;69.50
61035;BME280;46916;40.564;-7.958;2023-04-10T04:33:02;98015.34;;;14.78;69.51
61035;BME280;46916;40.564;-7.958;2023-04-10T04:35:21;98007.44;;;14.69;69.80
61035;BME280;46916;40.564;-7.958;2023-04-10T04:37:33;98016.03;;;14.71;69.84
61035;BME280;46916;40.564;-7.958;2023-04-10T04:39:56;98013.84;;;14.66;69.63
61035;BME280;46916;40.564;-7.958;2023-04-10T04:41:57;98009.25;;;14.58;69.96
61035;BME280;46916;40.564;-7.958;2023-04-10T04:44:19;98010.78;;;14.51;70.02
61035;BME280;46916;40.564;-7.958;2023-04-10T04:46:39;98003.00;;;14.40;70.69
61035;BME280;46916;40.564;-7.958;2023-04-10T04:49:05;98000.22;;;14.32;70.75
61035;BME280;46916;40.564;-7.958;2023-04-10T04:51:20;97999.81;;;14.27;70.78
61035;BME280;46916;40.564;-7.958;2023-04-10T04:53:50;98013.13;;;14.35;70.71
61035;BME280;46916;40.564;-7.958;2023-04-10T04:56:10;98016.47;;;14.37;70.90
61035;BME280;46916;40.564;-7.958;2023-04-10T04:58:24;98005.38;;;14.33;70.73
61035;BME280;46916;40.564;-7.958;2023-04-10T05:00:43;98021.00;;;14.45;70.48
61035;BME280;46916;40.564;-7.958;2023-04-10T05:03:02;98021.72;;;14.47;70.17
61035;BME280;46916;40.564;-7.958;2023-04-10T05:05:09;98020.50;;;14.41;70.10
61035;BME280;46916;40.564;-7.958;2023-04-10T05:07:35;98022.41;;;14.39;70.18
61035;BME280;46916;40.564;-7.958;2023-04-10T05:10:05;98027.53;;;14.41;70.35
61035;BME280;46916;40.564;-7.958;2023-04-10T05:12:25;98033.50;;;14.43;70.17
61035;BME280;46916;40.564;-7.958;2023-04-10T05:14:36;98033.38;;;14.44;70.26
61035;BME280;46916;40.564;-7.958;2023-04-10T05:17:00;98043.66;;;14.37;70.54
61035;BME280;46916;40.564;-7.958;2023-04-10T05:19:36;98040.88;;;14.29;70.84
61035;BME280;46916;40.564;-7.958;2023-04-10T05:21:54;98054.19;;;14.37;70.74
61035;BME280;46916;40.564;-7.958;2023-04-10T05:23:58;98046.69;;;14.33;70.73
61035;BME280;46916;40.564;-7.958;2023-04-10T05:26:24;98048.91;;;14.37;70.49
61035;BME280;46916;40.564;-7.958;2023-04-10T05:28:48;98066.69;;;14.45;70.05
61035;BME280;46916;40.564;-7.958;2023-04-10T05:31:07;98067.63;;;14.44;70.04
61035;BME280;46916;40.564;-7.958;2023-04-10T05:33:37;98065.47;;;14.49;69.96
61035;BME280;46916;40.564;-7.958;2023-04-10T05:35:58;98059.44;;;14.47;69.96
61035;BME280;46916;40.564;-7.958;2023-04-10T05:38:07;98070.59;;;14.51;69.74
61035;BME280;46916;40.564;-7.958;2023-04-10T05:40:27;98075.53;;;14.44;70.40
61035;BME280;46916;40.564;-7.958;2023-04-10T05:42:35;98075.69;;;14.43;70.27
61035;BME280;46916;40.564;-7.958;2023-04-10T05:44:53;98074.59;;;14.45;69.97
61035;BME280;46916;40.564;-7.958;2023-04-10T05:47:23;98079.69;;;14.47;70.02
61035;BME280;46916;40.564;-7.958;2023-04-10T05:49:47;98084.16;;;14.46;70.49
61035;BME280;46916;40.564;-7.958;2023-04-10T05:51:56;98083.59;;;14.43;70.33
61035;BME280;46916;40.564;-7.958;2023-04-10T05:54:13;98094.97;;;14.43;70.40
61035;BME280;46916;40.564;-7.958;2023-04-10T05:56:32;98090.66;;;14.42;70.26
61035;BME280;46916;40.564;-7.958;2023-04-10T05:58:52;98099.97;;;14.46;70.01
61035;BME280;46916;40.564;-7.958;2023-04-10T06:01:19;98102.06;;;14.52;69.67
61035;BME280;46916;40.564;-7.958;2023-04-10T06:03:25;98093.31;;;14.52;69.86
61035;BME280;46916;40.564;-7.958;2023-04-10T06:05:34;98106.09;;;14.56;69.60
61035;BME280;46916;40.564;-7.958;2023-04-10T06:07:38;98102.78;;;14.54;69.52
61035;BME280;46916;40.564;-7.958;2023-04-10T06:09:39;98103.03;;;14.51;69.20
61035;BME280;46916;40.564;-7.958;2023-04-10T06:11:43;98115.25;;;14.52;69.37
61035;BME280;46916;40.564;-7.958;2023-04-10T06:13:43;98102.22;;;14.51;69.17
61035;BME280;46916;40.564;-7.958;2023-04-10T06:15:45;98111.66;;;14.53;69.00
61035;BME280;46916;40.564;-7.958;2023-04-10T06:17:46;98112.44;;;14.44;69.19
61035;BME280;46916;40.564;-7.958;2023-04-10T06:19:47;98114.50;;;14.41;69.08
61035;BME280;46916;40.564;-7.958;2023-04-10T06:21:47;98120.75;;;14.40;69.11
61035;BME280;46916;40.564;-7.958;2023-04-10T06:23:48;98114.91;;;14.36;69.06
61035;BME280;46916;40.564;-7.958;2023-04-10T06:25:49;98109.06;;;14.32;69.28
61035;BME280;46916;40.564;-7.958;2023-04-10T06:27:50;98119.50;;;14.34;69.00
61035;BME280;46916;40.564;-7.958;2023-04-10T06:29:50;98136.81;;;14.36;69.28
61035;BME280;46916;40.564;-7.958;2023-04-10T06:31:54;98141.81;;;14.40;69.27
61035;BME280;46916;40.564;-7.958;2023-04-10T06:33:55;98146.69;;;14.44;69.25
61035;BME280;46916;40.564;-7.958;2023-04-10T06:35:57;98149.19;;;14.46;69.02
61035;BME280;46916;40.564;-7.958;2023-04-10T06:37:58;98151.97;;;14.44;69.01
61035;BME280;46916;40.564;-7.958;2023-04-10T06:40:04;98151.00;;;14.45;68.92
61035;BME280;46916;40.564;-7.958;2023-04-10T06:42:05;98155.31;;;14.46;68.87
61035;BME280;46916;40.564;-7.958;2023-04-10T06:44:25;98165.44;;;14.41;69.01
61035;BME280;46916;40.564;-7.958;2023-04-10T06:46:26;98163.19;;;14.36;68.88
61035;BME280;46916;40.564;-7.958;2023-04-10T06:48:27;98163.19;;;14.36;68.75
61035;BME280;46916;40.564;-7.958;2023-04-10T06:50:27;98168.19;;;14.40;68.67
61035;BME280;46916;40.564;-7.958;2023-04-10T06:52:28;98166.25;;;14.42;68.55
61035;BME280;46916;40.564;-7.958;2023-04-10T06:54:29;98180.69;;;14.37;68.38
61035;BME280;46916;40.564;-7.958;2023-04-10T06:56:30;98178.44;;;14.33;68.41
61035;BME280;46916;40.564;-7.958;2023-04-10T06:58:31;98183.56;;;14.34;68.62
61035;BME280;46916;40.564;-7.958;2023-04-10T07:00:32;98182.03;;;14.32;68.31
61035;BME280;46916;40.564;-7.958;2023-04-10T07:02:32;98189.81;;;14.33;68.42
61035;BME280;46916;40.564;-7.958;2023-04-10T07:04:33;98188.28;;;14.31;68.14
61035;BME280;46916;40.564;-7.958;2023-04-10T07:06:34;98185.22;;;14.26;68.08
61035;BME280;46916;40.564;-7.958;2023-04-10T07:08:35;98188.81;;;14.25;68.13
61035;BME280;46916;40.564;-7.958;2023-04-10T07:10:36;98190.44;;;14.16;68.44
61035;BME280;46916;40.564;-7.958;2023-04-10T07:12:36;98205.88;;;14.21;68.19
61035;BME280;46916;40.564;-7.958;2023-04-10T07:14:37;98209.44;;;14.20;68.19
61035;BME280;46916;40.564;-7.958;2023-04-10T07:16:38;98219.59;;;14.24;68.02
61035;BME280;46916;40.564;-7.958;2023-04-10T07:18:38;98220.38;;;14.15;68.14
61035;BME280;46916;40.564;-7.958;2023-04-10T07:20:40;98231.66;;;14.17;68.15
61035;BME280;46916;40.564;-7.958;2023-04-10T07:22:41;98231.31;;;14.10;68.28
61035;BME280;46916;40.564;-7.958;2023-04-10T07:24:42;98233.13;;;14.10;68.16
61035;BME280;46916;40.564;-7.958;2023-04-10T07:26:44;98238.56;;;14.18;68.14
61035;BME280;46916;40.564;-7.958;2023-04-10T07:28:45;98240.56;;;14.26;70.25
61035;BME280;46916;40.564;-7.958;2023-04-10T07:30:46;98225.63;;;14.46;71.45
61035;BME280;46916;40.564;-7.958;2023-04-10T07:32:47;98228.38;;;14.75;71.21
61035;BME280;46916;40.564;-7.958;2023-04-10T07:34:50;98235.88;;;14.99;70.24
61035;BME280;46916;40.564;-7.958;2023-04-10T07:36:52;98240.75;;;15.13;69.61
61035;BME280;46916;40.564;-7.958;2023-04-10T07:38:52;98233.66;;;15.23;68.88
61035;BME280;46916;40.564;-7.958;2023-04-10T07:41:00;98235.88;;;15.18;66.79
61035;BME280;46916;40.564;-7.958;2023-04-10T07:43:03;98246.00;;;14.94;67.23
61035;BME280;46916;40.564;-7.958;2023-04-10T07:45:15;98230.44;;;14.81;67.56
61035;BME280;46916;40.564;-7.958;2023-04-10T07:47:19;98246.09;;;14.63;67.74
61035;BME280;46916;40.564;-7.958;2023-04-10T07:49:29;98242.38;;;14.66;69.11
61035;BME280;46916;40.564;-7.958;2023-04-10T07:51:30;98243.34;;;14.84;69.09
61035;BME280;46916;40.564;-7.958;2023-04-10T07:53:38;98239.88;;;14.93;67.67
61035;BME280;46916;40.564;-7.958;2023-04-10T07:55:48;98247.69;;;15.04;67.04
61035;BME280;46916;40.564;-7.958;2023-04-10T07:57:49;98257.81;;;14.99;65.72
61035;BME280;46916;40.564;-7.958;2023-04-10T07:59:51;98243.22;;;14.76;65.75
61035;BME280;46916;40.564;-7.958;2023-04-10T08:01:52;98256.94;;;14.79;65.98
61035;BME280;46916;40.564;-7.958;2023-04-10T08:03:53;98255.56;;;14.66;66.25
61035;BME280;46916;40.564;-7.958;2023-04-10T08:05:55;98248.38;;;14.47;66.97
61035;BME280;46916;40.564;-7.958;2023-04-10T08:07:56;98246.50;;;14.58;67.28
61035;BME280;46916;40.564;-7.958;2023-04-10T08:09:57;98252.25;;;14.83;67.38
61035;BME280;46916;40.564;-7.958;2023-04-10T08:11:57;98238.78;;;15.05;66.35
61035;BME280;46916;40.564;-7.958;2023-04-10T08:13:59;98252.00;;;15.25;64.23
61035;BME280;46916;40.564;-7.958;2023-04-10T08:16:05;98247.13;;;15.40;64.71
61035;BME280;46916;40.564;-7.958;2023-04-10T08:18:06;98239.59;;;15.54;63.76
61035;BME280;46916;40.564;-7.958;2023-04-10T08:20:07;98239.19;;;15.69;62.84
61035;BME280;46916;40.564;-7.958;2023-04-10T08:22:09;98242.91;;;15.85;62.67
61035;BME280;46916;40.564;-7.958;2023-04-10T08:24:10;98242.03;;;15.95;62.71
61035;BME280;46916;40.564;-7.958;2023-04-10T08:26:11;98239.78;;;16.00;62.07
61035;BME280;46916;40.564;-7.958;2023-04-10T08:28:12;98231.19;;;15.98;62.04
61035;BME280;46916;40.564;-7.958;2023-04-10T08:30:13;98229.50;;;16.06;62.03
61035;BME280;46916;40.564;-7.958;2023-04-10T08:32:13;98230.03;;;16.10;62.19
61035;BME280;46916;40.564;-7.958;2023-04-10T08:34:16;98236.41;;;16.17;61.93
61035;BME280;46916;40.564;-7.958;2023-04-10T08:36:17;98230.25;;;16.26;61.56
61035;BME280;46916;40.564;-7.958;2023-04-10T08:38:23;98229.22;;;16.37;61.42
61035;BME280;46916;40.564;-7.958;2023-04-10T08:40:29;98221.81;;;16.41;61.21
61035;BME280;46916;40.564;-7.958;2023-04-10T08:42:30;98216.22;;;16.53;61.00
61035;BME280;46916;40.564;-7.958;2023-04-10T08:44:32;98217.13;;;16.62;60.97
61035;BME280;46916;40.564;-7.958;2023-04-10T08:46:35;98217.63;;;16.75;60.51
61035;BME280;46916;40.564;-7.958;2023-04-10T08:48:46;98218.53;;;16.84;60.31
61035;BME280;46916;40.564;-7.958;2023-04-10T08:50:50;98210.13;;;16.89;60.01
61035;BME280;46916;40.564;-7.958;2023-04-10T08:52:53;98220.44;;;16.92;59.70
61035;BME280;46916;40.564;-7.958;2023-04-10T08:54:55;98207.44;;;16.98;59.48
61035;BME280;46916;40.564;-7.958;2023-04-10T08:57:00;98218.94;;;17.07;59.29
61035;BME280;46916;40.564;-7.958;2023-04-10T08:59:01;98213.19;;;17.12;59.04
61035;BME280;46916;40.564;-7.958;2023-04-10T09:01:04;98213.53;;;17.17;59.00
61035;BME280;46916;40.564;-7.958;2023-04-10T09:03:09;98213.09;;;17.21;58.95
61035;BME280;46916;40.564;-7.958;2023-04-10T09:05:14;98219.59;;;17.27;58.34
61035;BME280;46916;40.564;-7.958;2023-04-10T09:07:15;98207.66;;;17.23;58.54
61035;BME280;46916;40.564;-7.958;2023-04-10T09:09:16;98216.25;;;17.25;58.47
61035;BME280;46916;40.564;-7.958;2023-04-10T09:11:19;98213.72;;;17.15;58.31
61035;BME280;46916;40.564;-7.958;2023-04-10T09:13:37;98202.88;;;17.08;58.85
61035;BME280;46916;40.564;-7.958;2023-04-10T09:15:55;98215.19;;;17.18;58.88
61035;BME280;46916;40.564;-7.958;2023-04-10T09:18:01;98216.56;;;17.22;58.63
61035;BME280;46916;40.564;-7.958;2023-04-10T09:20:22;98222.91;;;17.29;58.67
61035;BME280;46916;40.564;-7.958;2023-04-10T09:22:31;98216.31;;;17.33;58.09
61035;BME280;46916;40.564;-7.958;2023-04-10T09:24:36;98218.69;;;17.36;58.28
61035;BME280;46916;40.564;-7.958;2023-04-10T09:26:43;98224.50;;;17.40;58.25
61035;BME280;46916;40.564;-7.958;2023-04-10T09:29:05;98222.00;;;17.38;57.97
61035;BME280;46916;40.564;-7.958;2023-04-10T09:31:30;98223.88;;;17.46;57.92
61035;BME280;46916;40.564;-7.958;2023-04-10T09:33:31;98235.97;;;17.48;57.76
61035;BME280;46916;40.564;-7.958;2023-04-10T09:35:37;98238.94;;;17.45;57.93
61035;BME280;46916;40.564;-7.958;2023-04-10T09:37:44;98236.97;;;17.47;57.97
61035;BME280;46916;40.564;-7.958;2023-04-10T09:39:48;98242.09;;;17.49;57.64
61035;BME280;46916;40.564;-7.958;2023-04-10T09:41:52;98249.06;;;17.50;57.76
61035;BME280;46916;40.564;-7.958;2023-04-10T09:44:08;98243.75;;;17.50;57.66
61035;BME280;46916;40.564;-7.958;2023-04-10T09:46:10;98238.47;;;17.50;57.59
61035;BME280;46916;40.564;-7.958;2023-04-10T09:48:11;98242.63;;;17.52;57.30
61035;BME280;46916;40.564;-7.958;2023-04-10T09:50:12;98251.13;;;17.56;57.08
61035;BME280;46916;40.564;-7.958;2023-04-10T09:52:24;98253.44;;;17.59;56.89
61035;BME280;46916;40.564;-7.958;2023-04-10T09:54:36;98245.66;;;17.57;55.54
61035;BME280;46916;40.564;-7.958;2023-04-10T09:56:41;98248.75;;;17.53;55.56
61035;BME280;46916;40.564;-7.958;2023-04-10T09:58:48;98262.22;;;17.60;56.23
61035;BME280;46916;40.564;-7.958;2023-04-10T10:00:49;98268.19;;;17.62;56.21
61035;BME280;46916;40.564;-7.958;2023-04-10T10:02:58;98273.25;;;17.55;56.33
61035;BME280;46916;40.564;-7.958;2023-04-10T10:05:03;98269.50;;;17.57;56.64
61035;BME280;46916;40.564;-7.958;2023-04-10T10:07:04;98263.19;;;17.58;56.22
61035;BME280;46916;40.564;-7.958;2023-04-10T10:09:05;98262.06;;;17.61;56.42
61035;BME280;46916;40.564;-7.958;2023-04-10T10:11:06;98265.72;;;17.60;56.12
61035;BME280;46916;40.564;-7.958;2023-04-10T10:13:14;98266.66;;;17.59;55.89
61035;BME280;46916;40.564;-7.958;2023-04-10T10:19:58;98273.13;;;17.74;56.47
61035;BME280;46916;40.564;-7.958;2023-04-10T10:22:01;98269.88;;;17.80;56.57
61035;BME280;46916;40.564;-7.958;2023-04-10T10:24:07;98272.88;;;17.86;56.58
61035;BME280;46916;40.564;-7.958;2023-04-10T10:26:09;98269.75;;;17.90;56.55
61035;BME280;46916;40.564;-7.958;2023-04-10T10:28:15;98269.09;;;17.88;55.83
61035;BME280;46916;40.564;-7.958;2023-04-10T10:30:20;98266.75;;;17.85;56.13
61035;BME280;46916;40.564;-7.958;2023-04-10T10:32:23;98271.34;;;17.83;56.16
61035;BME280;46916;40.564;-7.958;2023-04-10T10:34:25;98276.53;;;17.85;56.44
61035;BME280;46916;40.564;-7.958;2023-04-10T10:36:26;98269.22;;;17.87;56.38
61035;BME280;46916;40.564;-7.958;2023-04-10T10:38:27;98273.41;;;17.89;56.35
61035;BME280;46916;40.564;-7.958;2023-04-10T10:40:31;98280.06;;;17.93;56.38
61035;BME280;46916;40.564;-7.958;2023-04-10T10:42:38;98278.41;;;17.92;56.10
61035;BME280;46916;40.564;-7.958;2023-04-10T10:45:05;98270.28;;;17.94;56.01
61035;BME280;46916;40.564;-7.958;2023-04-10T10:47:23;98272.25;;;17.92;55.57
61035;BME280;46916;40.564;-7.958;2023-04-10T10:51:51;98284.00;;;17.89;55.58
61035;BME280;46916;40.564;-7.958;2023-04-10T10:53:52;98276.72;;;17.91;55.54
61035;BME280;46916;40.564;-7.958;2023-04-10T10:55:53;98279.06;;;17.94;55.38
61035;BME280;46916;40.564;-7.958;2023-04-10T10:57:56;98280.06;;;17.93;55.27
61035;BME280;46916;40.564;-7.958;2023-04-10T11:00:03;98278.06;;;17.95;55.11
61035;BME280;46916;40.564;-7.958;2023-04-10T11:02:19;98281.09;;;18.00;55.10
61035;BME280;46916;40.564;-7.958;2023-04-10T11:04:42;98275.63;;;18.02;54.74
61035;BME280;46916;40.564;-7.958;2023-04-10T11:06:48;98272.16;;;18.01;54.45
61035;BME280;46916;40.564;-7.958;2023-04-10T11:08:51;98267.84;;;18.00;54.24
61035;BME280;46916;40.564;-7.958;2023-04-10T11:10:59;98266.69;;;18.03;54.43
61035;BME280;46916;40.564;-7.958;2023-04-10T11:13:17;98264.19;;;18.01;54.24
61035;BME280;46916;40.564;-7.958;2023-04-10T11:15:21;98264.50;;;17.98;53.60